Subpeak Weather - Last 24 Hours


View Last Hour    View Last 24 Hours

Time
Avg. Air Temp
Dew Point
Avg. Rel Humidity
Avg. 2 Min Wind Speed
Max Gust Velocity
MGV Time
MGV Direction
Avg. Spot Wind Velocity
2014-08-21 16:00:0010° C2° C59%7 km/h16 km/h2014-08-21 15:09:10E5 km/h
2014-08-21 15:00:009° C1° C56%2 km/h16 km/h2014-08-21 14:42:10S6 km/h
2014-08-21 14:00:008° C3° C72%7 km/h19 km/h2014-08-21 13:01:00S6 km/h
2014-08-21 13:00:008° C3° C71%11 km/h17 km/h2014-08-21 12:57:10SE8 km/h
2014-08-21 12:00:008° C4° C75%6 km/h13 km/h2014-08-21 11:04:10S5 km/h
2014-08-21 11:00:007° C3° C77%9 km/h15 km/h2014-08-21 10:57:10SW3 km/h
2014-08-21 10:00:007° C3° C74%5 km/h12 km/h2014-08-21 09:31:10S5 km/h
2014-08-21 09:00:006° C3° C75%5 km/h9 km/h2014-08-21 08:51:10S3 km/h
2014-08-21 08:00:006° C2° C74%5 km/h12 km/h2014-08-21 07:21:10SE5 km/h
2014-08-21 07:00:005° C1° C74%8 km/h12 km/h2014-08-21 06:50:10E8 km/h
2014-08-21 06:00:005° C0° C71%8 km/h13 km/h2014-08-21 05:49:10E8 km/h
2014-08-21 05:00:005° C1° C74%3 km/h16 km/h2014-08-21 04:06:10E7 km/h
2014-08-21 04:00:005° C1° C77%14 km/h22 km/h2014-08-21 03:13:10E16 km/h
2014-08-21 03:00:005° C1° C76%16 km/h29 km/h2014-08-21 02:12:10E20 km/h
2014-08-21 02:00:005° C1° C73%22 km/h31 km/h2014-08-21 01:22:10NE24 km/h
2014-08-21 01:00:006° C1° C70%21 km/h23 km/h2014-08-21 00:59:10NE13 km/h
2014-08-21 00:00:006° C1° C71%7 km/h11 km/h2014-08-20 23:29:10E9 km/h
2014-08-20 23:00:007° C2° C69%9 km/h11 km/h2014-08-20 22:11:10NE8 km/h
2014-08-20 22:00:007° C1° C69%8 km/h13 km/h2014-08-20 21:42:10E8 km/h
2014-08-20 21:00:007° C2° C69%6 km/h8 km/h2014-08-20 20:47:10NE6 km/h
2014-08-20 20:00:007° C1° C68%3 km/h16 km/h2014-08-20 19:14:10NE7 km/h
2014-08-20 19:00:007° C2° C67%13 km/h20 km/h2014-08-20 18:09:10N8 km/h
2014-08-20 18:00:007° C1° C70%12 km/h19 km/h2014-08-20 17:45:10W14 km/h
2014-08-20 17:00:008° C3° C74%13 km/h22 km/h2014-08-20 16:01:00SW13 km/h